sensor_id;sensor_type;location;lat;lon;timestamp;temperature;humidity
36800;DHT22;22752;51.960;5.886;2022-12-18T00:02:16;-4.00;99.90
36800;DHT22;22752;51.960;5.886;2022-12-18T00:04:42;-4.10;99.90
36800;DHT22;22752;51.960;5.886;2022-12-18T00:07:08;-4.00;99.90
36800;DHT22;22752;51.960;5.886;2022-12-18T00:09:34;-4.00;99.90
36800;DHT22;22752;51.960;5.886;2022-12-18T00:12:00;-4.00;99.90
36800;DHT22;22752;51.960;5.886;2022-12-18T00:14:25;-4.10;99.90
36800;DHT22;22752;51.960;5.886;2022-12-18T00:16:51;-4.10;99.90
36800;DHT22;22752;51.960;5.886;2022-12-18T00:19:16;-4.10;99.90
36800;DHT22;22752;51.960;5.886;2022-12-18T00:21:43;-4.20;99.90
36800;DHT22;22752;51.960;5.886;2022-12-18T00:24:10;-4.30;99.90
36800;DHT22;22752;51.960;5.886;2022-12-18T00:26:36;-4.30;99.90
36800;DHT22;22752;51.960;5.886;2022-12-18T00:29:09;-4.40;99.90
36800;DHT22;22752;51.960;5.886;2022-12-18T00:31:35;-4.40;99.90
36800;DHT22;22752;51.960;5.886;2022-12-18T00:34:02;-4.40;99.90
36800;DHT22;22752;51.960;5.886;2022-12-18T00:36:31;-4.40;99.90
36800;DHT22;22752;51.960;5.886;2022-12-18T00:38:58;-4.40;99.90
36800;DHT22;22752;51.960;5.886;2022-12-18T00:41:25;-4.40;99.90
36800;DHT22;22752;51.960;5.886;2022-12-18T00:44:11;-4.40;99.90
36800;DHT22;22752;51.960;5.886;2022-12-18T00:46:37;-4.40;99.90
36800;DHT22;22752;51.960;5.886;2022-12-18T00:49:03;-4.40;99.90
36800;DHT22;22752;51.960;5.886;2022-12-18T00:51:29;-4.40;99.90
36800;DHT22;22752;51.960;5.886;2022-12-18T00:53:55;-4.30;99.90
36800;DHT22;22752;51.960;5.886;2022-12-18T00:56:21;-4.30;99.90
36800;DHT22;22752;51.960;5.886;2022-12-18T00:58:46;-4.40;99.90
36800;DHT22;22752;51.960;5.886;2022-12-18T01:01:12;-4.40;99.90
36800;DHT22;22752;51.960;5.886;2022-12-18T01:03:38;-4.40;99.90
36800;DHT22;22752;51.960;5.886;2022-12-18T01:06:08;-4.40;99.90
36800;DHT22;22752;51.960;5.886;2022-12-18T01:08:34;-4.50;99.90
36800;DHT22;22752;51.960;5.886;2022-12-18T01:11:06;-4.50;99.90
36800;DHT22;22752;51.960;5.886;2022-12-18T01:13:32;-4.50;99.90
36800;DHT22;22752;51.960;5.886;2022-12-18T01:15:57;-4.50;99.90
36800;DHT22;22752;51.960;5.886;2022-12-18T01:18:23;-4.50;99.90
36800;DHT22;22752;51.960;5.886;2022-12-18T01:20:49;-4.50;99.90
36800;DHT22;22752;51.960;5.886;2022-12-18T01:23:14;-4.50;99.90
36800;DHT22;22752;51.960;5.886;2022-12-18T01:25:40;-4.60;99.90
36800;DHT22;22752;51.960;5.886;2022-12-18T01:28:05;-4.60;99.90
36800;DHT22;22752;51.960;5.886;2022-12-18T01:30:31;-4.60;99.90
36800;DHT22;22752;51.960;5.886;2022-12-18T01:32:57;-4.70;99.90
36800;DHT22;22752;51.960;5.886;2022-12-18T01:35:23;-4.70;99.90
36800;DHT22;22752;51.960;5.886;2022-12-18T01:37:48;-4.70;99.90
36800;DHT22;22752;51.960;5.886;2022-12-18T01:40:14;-4.80;99.90
36800;DHT22;22752;51.960;5.886;2022-12-18T01:42:39;-4.70;99.90
36800;DHT22;22752;51.960;5.886;2022-12-18T01:47:54;-4.70;99.90
36800;DHT22;22752;51.960;5.886;2022-12-18T01:50:24;-4.70;99.90
36800;DHT22;22752;51.960;5.886;2022-12-18T01:53:06;-4.80;99.90
36800;DHT22;22752;51.960;5.886;2022-12-18T01:55:40;-4.70;99.90
36800;DHT22;22752;51.960;5.886;2022-12-18T01:58:07;-4.80;99.90
36800;DHT22;22752;51.960;5.886;2022-12-18T02:00:34;-4.80;99.90
36800;DHT22;22752;51.960;5.886;2022-12-18T02:03:00;-4.80;99.90
36800;DHT22;22752;51.960;5.886;2022-12-18T02:05:53;-4.80;99.90
36800;DHT22;22752;51.960;5.886;2022-12-18T02:11:00;-4.90;99.90
36800;DHT22;22752;51.960;5.886;2022-12-18T02:19:25;-5.00;99.90
36800;DHT22;22752;51.960;5.886;2022-12-18T02:24:54;-5.10;99.90
36800;DHT22;22752;51.960;5.886;2022-12-18T02:27:24;-5.00;99.90
36800;DHT22;22752;51.960;5.886;2022-12-18T02:29:54;-5.00;99.90
36800;DHT22;22752;51.960;5.886;2022-12-18T02:32:25;-5.00;99.90
36800;DHT22;22752;51.960;5.886;2022-12-18T02:34:55;-5.00;99.90
36800;DHT22;22752;51.960;5.886;2022-12-18T02:37:23;-5.00;99.90
36800;DHT22;22752;51.960;5.886;2022-12-18T02:39:52;-5.00;99.90
36800;DHT22;22752;51.960;5.886;2022-12-18T02:42:20;-5.00;99.90
36800;DHT22;22752;51.960;5.886;2022-12-18T02:44:49;-5.00;99.90
36800;DHT22;22752;51.960;5.886;2022-12-18T02:47:18;-5.00;99.90
36800;DHT22;22752;51.960;5.886;2022-12-18T02:50:22;-5.10;99.90
36800;DHT22;22752;51.960;5.886;2022-12-18T03:01:19;-5.10;99.90
36800;DHT22;22752;51.960;5.886;2022-12-18T03:03:53;-5.20;99.90
36800;DHT22;22752;51.960;5.886;2022-12-18T03:06:30;-5.20;99.90
36800;DHT22;22752;51.960;5.886;2022-12-18T03:09:09;-5.20;99.90
36800;DHT22;22752;51.960;5.886;2022-12-18T03:11:40;-5.10;99.90
36800;DHT22;22752;51.960;5.886;2022-12-18T03:14:27;-5.20;99.90
36800;DHT22;22752;51.960;5.886;2022-12-18T03:16:59;-5.10;99.90
36800;DHT22;22752;51.960;5.886;2022-12-18T03:19:28;-5.10;99.90
36800;DHT22;22752;51.960;5.886;2022-12-18T03:21:56;-5.00;99.90
36800;DHT22;22752;51.960;5.886;2022-12-18T03:24:24;-5.10;99.90
36800;DHT22;22752;51.960;5.886;2022-12-18T03:26:58;-5.00;99.90
36800;DHT22;22752;51.960;5.886;2022-12-18T03:29:31;-5.10;99.90
36800;DHT22;22752;51.960;5.886;2022-12-18T03:32:05;-5.10;99.90
36800;DHT22;22752;51.960;5.886;2022-12-18T03:34:37;-5.10;99.90
36800;DHT22;22752;51.960;5.886;2022-12-18T03:37:04;-5.20;99.90
36800;DHT22;22752;51.960;5.886;2022-12-18T03:39:30;-5.20;99.90
36800;DHT22;22752;51.960;5.886;2022-12-18T03:42:01;-5.20;99.90
36800;DHT22;22752;51.960;5.886;2022-12-18T03:44:38;-5.20;99.90
36800;DHT22;22752;51.960;5.886;2022-12-18T03:47:10;-5.20;99.90
36800;DHT22;22752;51.960;5.886;2022-12-18T03:52:31;-5.20;99.90
36800;DHT22;22752;51.960;5.886;2022-12-18T03:55:00;-5.20;99.90
36800;DHT22;22752;51.960;5.886;2022-12-18T03:57:29;-5.30;99.90
36800;DHT22;22752;51.960;5.886;2022-12-18T03:59:59;-5.30;99.90
36800;DHT22;22752;51.960;5.886;2022-12-18T04:02:25;-5.20;99.90
36800;DHT22;22752;51.960;5.886;2022-12-18T04:04:53;-5.20;99.90
36800;DHT22;22752;51.960;5.886;2022-12-18T04:07:22;-5.20;99.90
36800;DHT22;22752;51.960;5.886;2022-12-18T04:09:49;-5.20;99.90
36800;DHT22;22752;51.960;5.886;2022-12-18T04:12:15;-5.30;99.90
36800;DHT22;22752;51.960;5.886;2022-12-18T04:14:41;-5.30;99.90
36800;DHT22;22752;51.960;5.886;2022-12-18T04:17:06;-5.20;99.90
36800;DHT22;22752;51.960;5.886;2022-12-18T04:19:32;-5.20;99.90
36800;DHT22;22752;51.960;5.886;2022-12-18T04:21:58;-5.20;99.90
36800;DHT22;22752;51.960;5.886;2022-12-18T04:24:23;-5.20;99.90
36800;DHT22;22752;51.960;5.886;2022-12-18T04:26:49;-5.20;99.90
36800;DHT22;22752;51.960;5.886;2022-12-18T04:29:14;-5.20;99.90
36800;DHT22;22752;51.960;5.886;2022-12-18T04:31:40;-5.20;99.90
36800;DHT22;22752;51.960;5.886;2022-12-18T04:34:06;-5.30;99.90
36800;DHT22;22752;51.960;5.886;2022-12-18T04:36:31;-5.30;99.90
36800;DHT22;22752;51.960;5.886;2022-12-18T04:38:57;-5.30;99.90
36800;DHT22;22752;51.960;5.886;2022-12-18T04:41:22;-5.20;99.90
36800;DHT22;22752;51.960;5.886;2022-12-18T04:43:48;-5.30;99.90
36800;DHT22;22752;51.960;5.886;2022-12-18T04:46:14;-5.20;99.90
36800;DHT22;22752;51.960;5.886;2022-12-18T04:48:39;-5.20;99.90
36800;DHT22;22752;51.960;5.886;2022-12-18T04:51:06;-5.20;99.90
36800;DHT22;22752;51.960;5.886;2022-12-18T04:53:32;-5.20;99.90
36800;DHT22;22752;51.960;5.886;2022-12-18T04:56:12;-5.20;99.90
36800;DHT22;22752;51.960;5.886;2022-12-18T04:58:41;-5.20;99.90
36800;DHT22;22752;51.960;5.886;2022-12-18T05:01:07;-5.20;99.90
36800;DHT22;22752;51.960;5.886;2022-12-18T05:03:34;-5.20;99.90
36800;DHT22;22752;51.960;5.886;2022-12-18T05:06:00;-5.10;99.90
36800;DHT22;22752;51.960;5.886;2022-12-18T05:08:26;-5.20;99.90
36800;DHT22;22752;51.960;5.886;2022-12-18T05:11:03;-5.20;99.90
36800;DHT22;22752;51.960;5.886;2022-12-18T05:13:29;-5.20;99.90
36800;DHT22;22752;51.960;5.886;2022-12-18T05:15:55;-5.30;99.90
36800;DHT22;22752;51.960;5.886;2022-12-18T05:18:22;-5.30;99.90
36800;DHT22;22752;51.960;5.886;2022-12-18T05:20:49;-5.40;99.90
36800;DHT22;22752;51.960;5.886;2022-12-18T05:23:15;-5.40;99.90
36800;DHT22;22752;51.960;5.886;2022-12-18T05:25:41;-5.50;99.90
36800;DHT22;22752;51.960;5.886;2022-12-18T05:28:07;-5.60;99.90
36800;DHT22;22752;51.960;5.886;2022-12-18T05:30:32;-5.60;99.90
36800;DHT22;22752;51.960;5.886;2022-12-18T05:32:58;-5.70;99.90
36800;DHT22;22752;51.960;5.886;2022-12-18T05:35:24;-5.70;99.90
36800;DHT22;22752;51.960;5.886;2022-12-18T05:37:49;-5.70;99.90
36800;DHT22;22752;51.960;5.886;2022-12-18T05:40:15;-5.70;99.90
36800;DHT22;22752;51.960;5.886;2022-12-18T05:42:41;-5.70;99.90
36800;DHT22;22752;51.960;5.886;2022-12-18T05:45:07;-5.70;99.90
36800;DHT22;22752;51.960;5.886;2022-12-18T05:47:32;-5.70;99.90
36800;DHT22;22752;51.960;5.886;2022-12-18T05:49:58;-5.70;99.90
36800;DHT22;22752;51.960;5.886;2022-12-18T05:52:24;-5.60;99.90
36800;DHT22;22752;51.960;5.886;2022-12-18T05:54:49;-5.50;99.90
36800;DHT22;22752;51.960;5.886;2022-12-18T05:57:15;-5.40;99.90
36800;DHT22;22752;51.960;5.886;2022-12-18T05:59:41;-5.40;99.90
36800;DHT22;22752;51.960;5.886;2022-12-18T06:02:06;-5.40;99.90
36800;DHT22;22752;51.960;5.886;2022-12-18T06:04:32;-5.30;99.90
36800;DHT22;22752;51.960;5.886;2022-12-18T06:06:58;-5.30;99.90
36800;DHT22;22752;51.960;5.886;2022-12-18T06:09:24;-5.40;99.90
36800;DHT22;22752;51.960;5.886;2022-12-18T06:11:52;-5.40;99.90
36800;DHT22;22752;51.960;5.886;2022-12-18T06:14:17;-5.40;99.90
36800;DHT22;22752;51.960;5.886;2022-12-18T06:16:43;-5.30;99.90
36800;DHT22;22752;51.960;5.886;2022-12-18T06:19:14;-5.30;99.90
36800;DHT22;22752;51.960;5.886;2022-12-18T06:21:40;-5.30;99.90
36800;DHT22;22752;51.960;5.886;2022-12-18T06:24:06;-5.30;99.90
36800;DHT22;22752;51.960;5.886;2022-12-18T06:26:32;-5.20;99.90
36800;DHT22;22752;51.960;5.886;2022-12-18T06:28:57;-5.20;99.90
36800;DHT22;22752;51.960;5.886;2022-12-18T06:31:23;-5.20;99.90
36800;DHT22;22752;51.960;5.886;2022-12-18T06:33:49;-5.20;99.90
36800;DHT22;22752;51.960;5.886;2022-12-18T06:36:14;-5.20;99.90
36800;DHT22;22752;51.960;5.886;2022-12-18T06:38:42;-5.20;99.90
36800;DHT22;22752;51.960;5.886;2022-12-18T06:41:09;-5.20;99.90
36800;DHT22;22752;51.960;5.886;2022-12-18T06:43:35;-5.10;99.90
36800;DHT22;22752;51.960;5.886;2022-12-18T06:46:03;-5.20;99.90
36800;DHT22;22752;51.960;5.886;2022-12-18T06:48:29;-5.20;99.90
36800;DHT22;22752;51.960;5.886;2022-12-18T06:50:55;-5.10;99.90
36800;DHT22;22752;51.960;5.886;2022-12-18T06:53:21;-5.10;99.90
36800;DHT22;22752;51.960;5.886;2022-12-18T06:55:47;-5.10;99.90
36800;DHT22;22752;51.960;5.886;2022-12-18T06:58:12;-5.10;99.90
36800;DHT22;22752;51.960;5.886;2022-12-18T07:00:38;-5.10;99.90
36800;DHT22;22752;51.960;5.886;2022-12-18T07:03:04;-5.10;99.90
36800;DHT22;22752;51.960;5.886;2022-12-18T07:05:29;-5.10;99.90
36800;DHT22;22752;51.960;5.886;2022-12-18T07:07:55;-5.10;99.90
36800;DHT22;22752;51.960;5.886;2022-12-18T07:10:20;-5.10;99.90
36800;DHT22;22752;51.960;5.886;2022-12-18T07:12:46;-5.10;99.90
36800;DHT22;22752;51.960;5.886;2022-12-18T07:15:12;-5.10;99.90
36800;DHT22;22752;51.960;5.886;2022-12-18T07:17:38;-5.10;99.90
36800;DHT22;22752;51.960;5.886;2022-12-18T07:20:04;-5.10;99.90
36800;DHT22;22752;51.960;5.886;2022-12-18T07:22:29;-5.10;99.90
36800;DHT22;22752;51.960;5.886;2022-12-18T07:24:55;-5.00;99.90
36800;DHT22;22752;51.960;5.886;2022-12-18T07:27:21;-5.00;99.90
36800;DHT22;22752;51.960;5.886;2022-12-18T07:29:47;-5.00;99.90
36800;DHT22;22752;51.960;5.886;2022-12-18T07:32:13;-4.90;99.90
36800;DHT22;22752;51.960;5.886;2022-12-18T07:34:38;-4.90;99.90
36800;DHT22;22752;51.960;5.886;2022-12-18T07:37:04;-4.90;99.90
36800;DHT22;22752;51.960;5.886;2022-12-18T07:39:30;-4.90;99.90
36800;DHT22;22752;51.960;5.886;2022-12-18T07:41:56;-4.90;99.90
36800;DHT22;22752;51.960;5.886;2022-12-18T07:44:40;-4.80;99.90
36800;DHT22;22752;51.960;5.886;2022-12-18T07:47:06;-4.80;99.90
36800;DHT22;22752;51.960;5.886;2022-12-18T07:49:31;-4.70;99.90
36800;DHT22;22752;51.960;5.886;2022-12-18T07:51:57;-4.70;99.90
36800;DHT22;22752;51.960;5.886;2022-12-18T07:54:24;-4.60;99.90
36800;DHT22;22752;51.960;5.886;2022-12-18T07:56:51;-4.60;99.90
36800;DHT22;22752;51.960;5.886;2022-12-18T07:59:17;-4.60;99.90
36800;DHT22;22752;51.960;5.886;2022-12-18T08:01:42;-4.50;99.90
36800;DHT22;22752;51.960;5.886;2022-12-18T08:04:08;-4.40;99.90
36800;DHT22;22752;51.960;5.886;2022-12-18T08:06:34;-4.40;99.90
36800;DHT22;22752;51.960;5.886;2022-12-18T08:08:59;-4.30;99.90
36800;DHT22;22752;51.960;5.886;2022-12-18T08:11:26;-4.20;99.90
36800;DHT22;22752;51.960;5.886;2022-12-18T08:13:53;-4.20;99.90
36800;DHT22;22752;51.960;5.886;2022-12-18T08:16:19;-4.10;99.90
36800;DHT22;22752;51.960;5.886;2022-12-18T08:18:44;-4.10;99.90
36800;DHT22;22752;51.960;5.886;2022-12-18T08:21:19;-4.00;99.90
36800;DHT22;22752;51.960;5.886;2022-12-18T08:23:46;-3.90;99.90
36800;DHT22;22752;51.960;5.886;2022-12-18T08:26:12;-3.90;99.90
36800;DHT22;22752;51.960;5.886;2022-12-18T08:28:39;-3.80;99.90
36800;DHT22;22752;51.960;5.886;2022-12-18T08:31:05;-3.80;99.90
36800;DHT22;22752;51.960;5.886;2022-12-18T08:33:31;-3.70;99.90
36800;DHT22;22752;51.960;5.886;2022-12-18T08:35:58;-3.60;99.90
36800;DHT22;22752;51.960;5.886;2022-12-18T08:38:24;-3.50;99.90
36800;DHT22;22752;51.960;5.886;2022-12-18T08:40:53;-3.40;99.90
36800;DHT22;22752;51.960;5.886;2022-12-18T08:43:19;-3.30;99.90
36800;DHT22;22752;51.960;5.886;2022-12-18T08:46:03;-3.20;99.90
36800;DHT22;22752;51.960;5.886;2022-12-18T08:48:29;-3.10;99.90
36800;DHT22;22752;51.960;5.886;2022-12-18T08:50:59;-3.10;99.90
36800;DHT22;22752;51.960;5.886;2022-12-18T08:53:25;-3.00;99.90
36800;DHT22;22752;51.960;5.886;2022-12-18T08:55:51;-2.90;99.90
36800;DHT22;22752;51.960;5.886;2022-12-18T08:58:17;-2.80;99.90
36800;DHT22;22752;51.960;5.886;2022-12-18T09:00:43;-2.70;99.90
36800;DHT22;22752;51.960;5.886;2022-12-18T09:03:18;-2.60;99.90
36800;DHT22;22752;51.960;5.886;2022-12-18T09:05:46;-2.60;99.90
36800;DHT22;22752;51.960;5.886;2022-12-18T09:08:12;-2.50;99.90
36800;DHT22;22752;51.960;5.886;2022-12-18T09:10:45;-2.50;99.90
36800;DHT22;22752;51.960;5.886;2022-12-18T09:13:12;-2.40;99.90
36800;DHT22;22752;51.960;5.886;2022-12-18T09:15:51;-2.40;99.90
36800;DHT22;22752;51.960;5.886;2022-12-18T09:18:18;-2.30;99.90
36800;DHT22;22752;51.960;5.886;2022-12-18T09:20:44;-2.30;99.90
36800;DHT22;22752;51.960;5.886;2022-12-18T09:23:11;-2.20;99.90
36800;DHT22;22752;51.960;5.886;2022-12-18T09:25:37;-2.20;99.90
36800;DHT22;22752;51.960;5.886;2022-12-18T09:28:10;-2.10;99.90
36800;DHT22;22752;51.960;5.886;2022-12-18T09:30:39;-2.10;99.90
36800;DHT22;22752;51.960;5.886;2022-12-18T09:33:05;-2.00;99.90
36800;DHT22;22752;51.960;5.886;2022-12-18T09:35:31;-1.90;99.90
36800;DHT22;22752;51.960;5.886;2022-12-18T09:37:56;-1.80;99.90
36800;DHT22;22752;51.960;5.886;2022-12-18T09:40:26;-1.80;99.90
36800;DHT22;22752;51.960;5.886;2022-12-18T09:42:59;-1.70;99.90
36800;DHT22;22752;51.960;5.886;2022-12-18T09:45:26;-1.70;99.90
36800;DHT22;22752;51.960;5.886;2022-12-18T09:47:54;-1.60;99.90
36800;DHT22;22752;51.960;5.886;2022-12-18T09:50:28;-1.50;99.90
36800;DHT22;22752;51.960;5.886;2022-12-18T09:52:57;-1.50;99.90
36800;DHT22;22752;51.960;5.886;2022-12-18T09:55:44;-1.40;99.90
36800;DHT22;22752;51.960;5.886;2022-12-18T10:00:36;-1.40;99.90
36800;DHT22;22752;51.960;5.886;2022-12-18T10:03:12;-1.30;99.90
36800;DHT22;22752;51.960;5.886;2022-12-18T10:05:44;-1.20;99.90
36800;DHT22;22752;51.960;5.886;2022-12-18T10:14:01;-1.10;99.90
36800;DHT22;22752;51.960;5.886;2022-12-18T10:16:54;-1.10;99.90
36800;DHT22;22752;51.960;5.886;2022-12-18T10:24:52;-0.90;99.90
36800;DHT22;22752;51.960;5.886;2022-12-18T10:27:24;-0.90;99.90
36800;DHT22;22752;51.960;5.886;2022-12-18T10:29:50;-0.80;99.90
36800;DHT22;22752;51.960;5.886;2022-12-18T10:32:23;-0.80;99.90
36800;DHT22;22752;51.960;5.886;2022-12-18T10:34:52;-0.70;99.90
36800;DHT22;22752;51.960;5.886;2022-12-18T10:37:19;-0.60;99.90
36800;DHT22;22752;51.960;5.886;2022-12-18T10:39:47;-0.60;99.90
36800;DHT22;22752;51.960;5.886;2022-12-18T10:42:29;-0.50;99.90
36800;DHT22;22752;51.960;5.886;2022-12-18T10:45:08;-0.50;99.90
36800;DHT22;22752;51.960;5.886;2022-12-18T10:47:34;-0.40;99.90
36800;DHT22;22752;51.960;5.886;2022-12-18T10:50:01;-0.40;99.90
36800;DHT22;22752;51.960;5.886;2022-12-18T10:52:27;-0.30;99.90
36800;DHT22;22752;51.960;5.886;2022-12-18T10:54:59;-0.30;99.90
36800;DHT22;22752;51.960;5.886;2022-12-18T10:57:35;-0.20;99.90
36800;DHT22;22752;51.960;5.886;2022-12-18T11:00:26;-0.20;99.90
36800;DHT22;22752;51.960;5.886;2022-12-18T11:02:54;-0.10;99.90
36800;DHT22;22752;51.960;5.886;2022-12-18T11:05:31;-0.10;99.90
36800;DHT22;22752;51.960;5.886;2022-12-18T11:07:58;-0.10;99.90
36800;DHT22;22752;51.960;5.886;2022-12-18T11:13:12;0.00;99.90
36800;DHT22;22752;51.960;5.886;2022-12-18T11:15:41;0.10;99.90
36800;DHT22;22752;51.960;5.886;2022-12-18T11:18:22;0.00;99.90
36800;DHT22;22752;51.960;5.886;2022-12-18T11:20:58;0.00;99.90
36800;DHT22;22752;51.960;5.886;2022-12-18T11:23:26;0.00;99.90
36800;DHT22;22752;51.960;5.886;2022-12-18T11:26:04;0.10;99.90
36800;DHT22;22752;51.960;5.886;2022-12-18T11:36:29;0.20;99.90
36800;DHT22;22752;51.960;5.886;2022-12-18T11:39:00;0.20;99.90
36800;DHT22;22752;51.960;5.886;2022-12-18T11:41:34;0.20;99.90
36800;DHT22;22752;51.960;5.886;2022-12-18T11:44:28;0.30;99.90
36800;DHT22;22752;51.960;5.886;2022-12-18T11:47:01;0.40;99.90
36800;DHT22;22752;51.960;5.886;2022-12-18T11:49:33;0.40;99.90
36800;DHT22;22752;51.960;5.886;2022-12-18T11:52:21;0.40;99.90
36800;DHT22;22752;51.960;5.886;2022-12-18T11:54:51;0.40;99.90
36800;DHT22;22752;51.960;5.886;2022-12-18T12:11:48;0.60;99.90
36800;DHT22;22752;51.960;5.886;2022-12-18T12:25:22;0.70;99.90
36800;DHT22;22752;51.960;5.886;2022-12-18T12:30:35;0.70;99.90
36800;DHT22;22752;51.960;5.886;2022-12-18T12:33:36;0.80;99.90
36800;DHT22;22752;51.960;5.886;2022-12-18T12:38:49;0.90;99.90
36800;DHT22;22752;51.960;5.886;2022-12-18T12:41:20;0.90;99.90
36800;DHT22;22752;51.960;5.886;2022-12-18T12:44:09;0.90;99.90
36800;DHT22;22752;51.960;5.886;2022-12-18T12:46:40;0.90;99.90
36800;DHT22;22752;51.960;5.886;2022-12-18T12:49:15;0.90;99.90
36800;DHT22;22752;51.960;5.886;2022-12-18T12:51:45;0.90;99.90
36800;DHT22;22752;51.960;5.886;2022-12-18T12:54:21;0.90;99.90
36800;DHT22;22752;51.960;5.886;2022-12-18T12:57:12;0.90;99.90
36800;DHT22;22752;51.960;5.886;2022-12-18T12:59:55;0.90;99.90
36800;DHT22;22752;51.960;5.886;2022-12-18T13:02:58;0.90;99.90
36800;DHT22;22752;51.960;5.886;2022-12-18T13:05:49;0.90;99.90
36800;DHT22;22752;51.960;5.886;2022-12-18T13:08:52;0.90;99.90
36800;DHT22;22752;51.960;5.886;2022-12-18T13:14:27;0.90;99.90
36800;DHT22;22752;51.960;5.886;2022-12-18T13:17:16;0.90;99.90
36800;DHT22;22752;51.960;5.886;2022-12-18T13:19:43;1.00;99.90
36800;DHT22;22752;51.960;5.886;2022-12-18T13:22:45;0.90;99.90
36800;DHT22;22752;51.960;5.886;2022-12-18T13:28:09;1.00;99.90
36800;DHT22;22752;51.960;5.886;2022-12-18T13:48:59;1.00;99.90
36800;DHT22;22752;51.960;5.886;2022-12-18T13:51:26;1.00;99.90
36800;DHT22;22752;51.960;5.886;2022-12-18T13:54:01;0.90;99.90
36800;DHT22;22752;51.960;5.886;2022-12-18T13:56:30;1.00;99.90
36800;DHT22;22752;51.960;5.886;2022-12-18T14:01:34;1.00;99.90
36800;DHT22;22752;51.960;5.886;2022-12-18T14:04:20;1.00;99.90
36800;DHT22;22752;51.960;5.886;2022-12-18T14:06:47;1.00;99.90
36800;DHT22;22752;51.960;5.886;2022-12-18T14:09:16;1.00;99.90
36800;DHT22;22752;51.960;5.886;2022-12-18T14:11:51;1.00;99.90
36800;DHT22;22752;51.960;5.886;2022-12-18T14:14:18;1.10;99.90
36800;DHT22;22752;51.960;5.886;2022-12-18T14:16:45;1.00;99.90
36800;DHT22;22752;51.960;5.886;2022-12-18T14:19:20;1.10;99.90
36800;DHT22;22752;51.960;5.886;2022-12-18T14:21:48;1.00;99.90
36800;DHT22;22752;51.960;5.886;2022-12-18T14:24:20;1.00;99.90
36800;DHT22;22752;51.960;5.886;2022-12-18T14:26:48;1.00;99.90
36800;DHT22;22752;51.960;5.886;2022-12-18T14:29:28;1.10;99.90
36800;DHT22;22752;51.960;5.886;2022-12-18T14:32:11;1.10;99.90
36800;DHT22;22752;51.960;5.886;2022-12-18T14:34:37;1.00;99.90
36800;DHT22;22752;51.960;5.886;2022-12-18T14:37:03;1.00;99.90
36800;DHT22;22752;51.960;5.886;2022-12-18T14:39:29;1.00;99.90
36800;DHT22;22752;51.960;5.886;2022-12-18T14:41:55;1.00;99.90
36800;DHT22;22752;51.960;5.886;2022-12-18T14:44:20;1.10;99.90
36800;DHT22;22752;51.960;5.886;2022-12-18T14:46:47;1.10;99.90
36800;DHT22;22752;51.960;5.886;2022-12-18T14:49:30;1.10;99.90
36800;DHT22;22752;51.960;5.886;2022-12-18T14:52:04;1.10;99.90
36800;DHT22;22752;51.960;5.886;2022-12-18T14:54:31;1.10;99.90
36800;DHT22;22752;51.960;5.886;2022-12-18T14:57:04;1.10;99.90
36800;DHT22;22752;51.960;5.886;2022-12-18T14:59:30;1.00;99.90
36800;DHT22;22752;51.960;5.886;2022-12-18T15:02:20;1.10;99.90
36800;DHT22;22752;51.960;5.886;2022-12-18T15:04:46;1.00;99.90
36800;DHT22;22752;51.960;5.886;2022-12-18T15:07:18;1.00;99.90
36800;DHT22;22752;51.960;5.886;2022-12-18T15:12:34;1.00;99.90
36800;DHT22;22752;51.960;5.886;2022-12-18T15:14:59;1.00;99.90
36800;DHT22;22752;51.960;5.886;2022-12-18T15:17:25;1.00;99.90
36800;DHT22;22752;51.960;5.886;2022-12-18T15:19:57;1.00;99.90
36800;DHT22;22752;51.960;5.886;2022-12-18T15:22:29;1.00;99.90
36800;DHT22;22752;51.960;5.886;2022-12-18T15:24:56;1.00;99.90
36800;DHT22;22752;51.960;5.886;2022-12-18T15:32:39;0.90;99.90
36800;DHT22;22752;51.960;5.886;2022-12-18T15:37:37;0.90;99.90
36800;DHT22;22752;51.960;5.886;2022-12-18T15:40:03;0.90;99.90
36800;DHT22;22752;51.960;5.886;2022-12-18T15:42:29;0.90;99.90
36800;DHT22;22752;51.960;5.886;2022-12-18T15:45:14;0.90;99.90
36800;DHT22;22752;51.960;5.886;2022-12-18T15:47:40;0.90;99.90
36800;DHT22;22752;51.960;5.886;2022-12-18T15:50:07;0.90;99.90
36800;DHT22;22752;51.960;5.886;2022-12-18T15:52:40;0.90;99.90
36800;DHT22;22752;51.960;5.886;2022-12-18T15:55:14;1.00;99.90
36800;DHT22;22752;51.960;5.886;2022-12-18T15:58:10;0.90;99.90
36800;DHT22;22752;51.960;5.886;2022-12-18T16:00:38;0.90;99.90
36800;DHT22;22752;51.960;5.886;2022-12-18T16:03:04;0.90;99.90
36800;DHT22;22752;51.960;5.886;2022-12-18T16:05:31;0.90;99.90
36800;DHT22;22752;51.960;5.886;2022-12-18T16:07:57;0.90;99.90
36800;DHT22;22752;51.960;5.886;2022-12-18T16:10:24;0.90;99.90
36800;DHT22;22752;51.960;5.886;2022-12-18T16:12:50;0.80;99.90
36800;DHT22;22752;51.960;5.886;2022-12-18T16:15:16;0.90;99.90
36800;DHT22;22752;51.960;5.886;2022-12-18T16:17:43;0.90;99.90
36800;DHT22;22752;51.960;5.886;2022-12-18T16:20:16;0.90;99.90
36800;DHT22;22752;51.960;5.886;2022-12-18T16:22:42;0.90;99.90
36800;DHT22;22752;51.960;5.886;2022-12-18T16:25:20;0.90;99.90
36800;DHT22;22752;51.960;5.886;2022-12-18T16:27:46;0.90;99.90
36800;DHT22;22752;51.960;5.886;2022-12-18T16:30:16;0.80;99.90
36800;DHT22;22752;51.960;5.886;2022-12-18T16:32:43;0.80;99.90
36800;DHT22;22752;51.960;5.886;2022-12-18T16:35:11;0.80;99.90
36800;DHT22;22752;51.960;5.886;2022-12-18T16:37:37;0.80;99.90
36800;DHT22;22752;51.960;5.886;2022-12-18T16:40:03;0.80;99.90
36800;DHT22;22752;51.960;5.886;2022-12-18T16:42:28;0.80;99.90
36800;DHT22;22752;51.960;5.886;2022-12-18T16:44:54;0.80;99.90
36800;DHT22;22752;51.960;5.886;2022-12-18T16:47:20;0.80;99.90
36800;DHT22;22752;51.960;5.886;2022-12-18T16:49:45;0.80;99.90
36800;DHT22;22752;51.960;5.886;2022-12-18T16:52:12;0.80;99.90
36800;DHT22;22752;51.960;5.886;2022-12-18T16:54:37;0.80;99.90
36800;DHT22;22752;51.960;5.886;2022-12-18T16:57:03;0.80;99.90
36800;DHT22;22752;51.960;5.886;2022-12-18T16:59:30;0.80;99.90
36800;DHT22;22752;51.960;5.886;2022-12-18T17:01:55;0.80;99.90
36800;DHT22;22752;51.960;5.886;2022-12-18T17:04:22;0.80;99.90
36800;DHT22;22752;51.960;5.886;2022-12-18T17:06:48;0.80;99.90
36800;DHT22;22752;51.960;5.886;2022-12-18T17:09:18;0.80;99.90
36800;DHT22;22752;51.960;5.886;2022-12-18T17:11:50;0.80;99.90
36800;DHT22;22752;51.960;5.886;2022-12-18T17:14:18;0.80;99.90
36800;DHT22;22752;51.960;5.886;2022-12-18T17:16:45;0.70;99.90
36800;DHT22;22752;51.960;5.886;2022-12-18T17:19:11;0.70;99.90
36800;DHT22;22752;51.960;5.886;2022-12-18T17:21:37;0.80;99.90
36800;DHT22;22752;51.960;5.886;2022-12-18T17:24:03;0.80;99.90
36800;DHT22;22752;51.960;5.886;2022-12-18T17:26:29;0.80;99.90
36800;DHT22;22752;51.960;5.886;2022-12-18T17:28:56;0.80;99.90
36800;DHT22;22752;51.960;5.886;2022-12-18T17:31:24;0.80;99.90
36800;DHT22;22752;51.960;5.886;2022-12-18T17:33:50;0.70;99.90
36800;DHT22;22752;51.960;5.886;2022-12-18T17:36:17;0.80;99.90
36800;DHT22;22752;51.960;5.886;2022-12-18T17:38:52;0.80;99.90
36800;DHT22;22752;51.960;5.886;2022-12-18T17:41:18;0.80;99.90
36800;DHT22;22752;51.960;5.886;2022-12-18T17:46:41;0.80;99.90
36800;DHT22;22752;51.960;5.886;2022-12-18T17:49:08;0.80;99.90
36800;DHT22;22752;51.960;5.886;2022-12-18T17:51:34;0.80;99.90